createdAt,value
2019-03-18T20:57:11.038Z,12.10
2019-03-18T21:00:14.772Z,12.10
2019-03-18T21:02:43.915Z,12.20
2019-03-18T21:05:13.118Z,12.20
2019-03-18T21:07:42.325Z,12.20
2019-03-18T21:10:21.009Z,12.10
2019-03-18T21:12:50.168Z,12.10
2019-03-18T21:15:20.363Z,12.10
2019-03-18T21:17:49.494Z,12.00
2019-03-18T21:20:20.851Z,12.00
2019-03-18T21:22:49.984Z,12.00
2019-03-18T21:25:19.146Z,12.00
2019-03-18T21:27:48.278Z,12.00
2019-03-18T21:30:23.793Z,12.00
2019-03-18T21:32:52.972Z,12.00
2019-03-18T21:35:22.458Z,12.00
2019-03-18T21:37:51.637Z,12.00
2019-03-18T21:40:21.138Z,12.00
2019-03-18T21:42:50.272Z,12.00
2019-03-18T21:45:23.557Z,12.00
2019-03-18T21:47:52.235Z,12.10
2019-03-18T21:50:21.393Z,12.00
2019-03-18T21:52:50.595Z,12.10
2019-03-18T21:55:19.747Z,12.10
2019-03-18T21:57:48.885Z,12.10
2019-03-18T22:00:18.991Z,12.00
2019-03-18T22:02:48.126Z,12.00
2019-03-18T22:05:17.282Z,12.00
2019-03-18T22:07:46.419Z,12.00
2019-03-18T22:10:19.538Z,11.90
2019-03-18T22:12:48.700Z,11.90
2019-03-18T22:15:17.909Z,11.90
2019-03-18T22:17:47.041Z,11.80
2019-03-18T22:20:18.200Z,11.80
2019-03-18T22:22:47.339Z,11.80
2019-03-18T22:25:16.490Z,11.80
2019-03-18T22:27:45.634Z,11.70
2019-03-18T22:30:18.218Z,11.70
2019-03-18T22:32:47.622Z,11.70
2019-03-18T22:35:16.774Z,11.70
2019-03-18T22:37:45.918Z,11.70
2019-03-18T22:40:17.272Z,11.60
2019-03-18T22:42:46.413Z,11.60
2019-03-18T22:45:16.209Z,11.60
2019-03-18T22:47:45.344Z,11.60
2019-03-18T22:50:16.034Z,11.50
2019-03-18T22:52:45.193Z,11.50
2019-03-18T22:55:14.847Z,11.50
2019-03-18T22:57:43.982Z,11.50
2019-03-18T23:00:22.603Z,11.50
2019-03-18T23:02:53.354Z,11.40
2019-03-18T23:05:22.502Z,11.40
2019-03-18T23:07:51.642Z,11.40
2019-03-18T23:10:20.854Z,11.40
2019-03-18T23:12:50.070Z,11.40
2019-03-18T23:15:19.224Z,11.40
2019-03-18T23:17:48.417Z,11.40
2019-03-18T23:20:17.582Z,11.40
2019-03-18T23:22:46.717Z,11.40
2019-03-18T23:25:15.871Z,11.40
2019-03-18T23:27:45.006Z,11.30
2019-03-18T23:30:14.723Z,11.30
2019-03-18T23:32:43.984Z,11.30
2019-03-18T23:35:13.132Z,11.30
2019-03-18T23:37:42.274Z,11.20
2019-03-18T23:40:14.685Z,11.20
2019-03-18T23:42:43.825Z,11.20
2019-03-18T23:45:12.978Z,11.20
2019-03-18T23:47:42.210Z,11.20
2019-03-18T23:50:13.191Z,11.20
2019-03-18T23:52:43.414Z,11.20
2019-03-18T23:55:19.075Z,11.20
2019-03-18T23:57:43.395Z,11.10
